WXM80 ListenWXM80 Stop

You find our weather info also at:

UK Metoffice

WeatherCloud

Weather Underground

Northeastern Weather Network

AWEKAS

Citizen Weather Observer Program (CWOP)

HAMweather, WeatherForYou, PWS Weather


Weather Underground History page Text

Daily Summary for August 16, 2017 Units:  Metric    English   Both
« Previous Day
Next Day »
Daily Weekly Monthly Yearly Custom
  High: Low: Average:
Temperature: 32.3 °C 20.2 °C 25 °C
Dew Point: 22.8 °C 18.5 °C 20.2 °C
Humidity: 98 % 48 % 78 %
Wind Speed: 8.5 km/h 0 km/h 1.1 km/h
Wind Gust: 11.3 km/h - -
Wind:- - WSW
Pressure: 1014.8 hPa 1010 hPa -
Precipitation: 0 mm    
Historical Graphs
 
 
Tabular Data for August 16, 2017
Time Temperature Dew Point Pressure Wind Wind Speed Wind Gust Humidity Rainfall Rate (Hourly)
00:00 21.1 °C 20.1 °C 1010.4 hPa SE 0.6 km/h 3.7 km/h 94 % 0 mm
00:05 21.1 °C 20.1 °C 1010.7 hPa Calm   1.9 km/h 94 % 0 mm
00:10 21 °C 20 °C 1010.7 hPa Calm     94 % 0 mm
00:15 20.9 °C 19.9 °C 1010.7 hPa Calm     94 % 0 mm
00:20 20.9 °C 19.9 °C 1010.4 hPa Calm     94 % 0 mm
00:25 20.8 °C 19.8 °C 1010.4 hPa Calm     94 % 0 mm
00:30 20.8 °C 19.8 °C 1010.4 hPa Calm     94 % 0 mm
00:35 20.7 °C 19.7 °C 1010.4 hPa Calm     94 % 0 mm
00:40 20.7 °C 19.7 °C 1010.4 hPa Calm     94 % 0 mm
00:45 20.7 °C 19.7 °C 1010.4 hPa Calm     94 % 0 mm
00:50 20.6 °C 19.6 °C 1010.4 hPa SE 0.2 km/h 1.9 km/h 94 % 0 mm
00:55 20.6 °C 19.8 °C 1010.4 hPa Calm     95 % 0 mm
01:00 20.6 °C 19.8 °C 1010.7 hPa Calm     95 % 0 mm
01:05 20.6 °C 19.8 °C 1010.4 hPa WSW 0.5 km/h 1.9 km/h 95 % 0 mm
01:10 20.6 °C 19.8 °C 1010.4 hPa Calm     95 % 0 mm
01:15 20.7 °C 20 °C 1010.4 hPa Calm     96 % 0 mm
01:20 20.7 °C 20 °C 1010 hPa Calm     96 % 0 mm
01:25 20.6 °C 19.9 °C 1010 hPa Calm     96 % 0 mm
01:30 20.6 °C 19.9 °C 1010 hPa Calm     96 % 0 mm
01:35 20.6 °C 19.9 °C 1010.4 hPa Calm   1.9 km/h 96 % 0 mm
01:40 20.6 °C 19.9 °C 1010.4 hPa WSW 0.5 km/h 3.7 km/h 96 % 0 mm
01:45 20.6 °C 19.9 °C 1010 hPa Calm     96 % 0 mm
01:50 20.6 °C 19.9 °C 1010 hPa Calm   1.9 km/h 96 % 0 mm
01:56 20.6 °C 19.9 °C 1010 hPa Calm   4.8 km/h 96 % 0 mm
02:01 20.6 °C 19.9 °C 1010.4 hPa WSW 0.2 km/h 5.6 km/h 96 % 0 mm
02:06 20.7 °C 20 °C 1010.4 hPa WSW 2.1 km/h 3.7 km/h 96 % 0 mm
02:11 20.7 °C 20 °C 1010.4 hPa Calm   4.8 km/h 96 % 0 mm
02:16 20.7 °C 20 °C 1010.4 hPa Calm     96 % 0 mm
02:21 20.7 °C 20 °C 1010.7 hPa Calm   1.6 km/h 96 % 0 mm
02:26 20.7 °C 20 °C 1010.4 hPa Calm   1.6 km/h 96 % 0 mm
02:31 20.7 °C 20 °C 1010.7 hPa Calm   1.6 km/h 96 % 0 mm
02:36 20.7 °C 20 °C 1010.7 hPa Calm   1.6 km/h 96 % 0 mm
02:41 20.7 °C 20 °C 1010.7 hPa Calm     96 % 0 mm
02:46 20.7 °C 20 °C 1010.7 hPa Calm   3.2 km/h 96 % 0 mm
02:51 20.6 °C 19.9 °C 1010.7 hPa Calm   1.6 km/h 96 % 0 mm
02:56 20.6 °C 19.9 °C 1010.7 hPa Calm   3.2 km/h 96 % 0 mm
03:01 20.6 °C 19.9 °C 1010.7 hPa Calm   1.9 km/h 96 % 0 mm
03:06 20.6 °C 19.9 °C 1010.7 hPa West 0.2 km/h 4.8 km/h 96 % 0 mm
03:11 20.6 °C 19.9 °C 1010.7 hPa Calm   1.9 km/h 96 % 0 mm
03:16 20.7 °C 20.2 °C 1010.7 hPa Calm     97 % 0 mm
03:21 20.7 °C 20.2 °C 1010.7 hPa WSW 0.3 km/h 1.9 km/h 97 % 0 mm
03:26 20.6 °C 20.1 °C 1011.1 hPa Calm     97 % 0 mm
03:31 20.6 °C 20.1 °C 1011.1 hPa Calm     97 % 0 mm
03:36 20.6 °C 20.1 °C 1011.1 hPa Calm     97 % 0 mm
03:41 20.6 °C 20.1 °C 1010.7 hPa Calm     97 % 0 mm
03:46 20.6 °C 19.9 °C 1010.7 hPa Calm     96 % 0 mm
03:51 20.6 °C 19.9 °C 1010.7 hPa Calm     96 % 0 mm
03:56 20.5 °C 19.8 °C 1010.7 hPa Calm     96 % 0 mm
04:01 20.5 °C 19.8 °C 1010.7 hPa Calm     96 % 0 mm
04:06 20.4 °C 19.8 °C 1010.7 hPa Calm     96 % 0 mm
04:11 20.4 °C 19.8 °C 1010.4 hPa Calm     96 % 0 mm
04:16 20.3 °C 19.7 °C 1010.4 hPa Calm     96 % 0 mm
04:21 20.3 °C 19.7 °C 1010.7 hPa Calm     96 % 0 mm
04:26 20.3 °C 19.6 °C 1010.7 hPa Calm     96 % 0 mm
04:31 20.3 °C 19.6 °C 1010.7 hPa Calm     96 % 0 mm
04:36 20.2 °C 19.6 °C 1010.7 hPa Calm     96 % 0 mm
04:41 20.2 °C 19.6 °C 1011.1 hPa Calm     96 % 0 mm
04:46 20.2 °C 19.6 °C 1011.1 hPa Calm     96 % 0 mm
04:51 20.2 °C 19.7 °C 1011.1 hPa Calm     97 % 0 mm
04:56 20.3 °C 19.8 °C 1011.1 hPa Calm     97 % 0 mm
05:02 20.3 °C 19.8 °C 1011.1 hPa Calm   1.9 km/h 97 % 0 mm
05:07 20.3 °C 19.8 °C 1011.1 hPa WSW 0.2 km/h 1.9 km/h 97 % 0 mm
05:12 20.4 °C 19.9 °C 1011.1 hPa Calm     97 % 0 mm
05:17 20.4 °C 19.9 °C 1011.4 hPa Calm     97 % 0 mm
05:22 20.5 °C 20 °C 1011.4 hPa Calm   1.9 km/h 97 % 0 mm
05:27 20.6 °C 20.1 °C 1011.4 hPa WSW 0.2 km/h 1.9 km/h 97 % 0 mm
05:32 20.7 °C 20.2 °C 1011.4 hPa Calm     97 % 0 mm
05:37 20.8 °C 20.3 °C 1011.4 hPa Calm   1.6 km/h 97 % 0 mm
05:42 20.9 °C 20.4 °C 1011.4 hPa WSW 0.3 km/h 1.9 km/h 97 % 0 mm
05:47 20.9 °C 20.6 °C 1011.7 hPa WSW 0.2 km/h 1.9 km/h 98 % 0 mm
05:52 21.1 °C 20.7 °C 1011.7 hPa WSW 0.6 km/h 3.7 km/h 98 % 0 mm
05:57 21.1 °C 20.7 °C 1011.7 hPa Calm     98 % 0 mm
06:02 21.1 °C 20.6 °C 1011.7 hPa WSW 0.3 km/h 3.7 km/h 97 % 0 mm
06:07 21.1 °C 20.6 °C 1011.7 hPa WNW 2.3 km/h 6.4 km/h 97 % 0 mm
06:12 21.1 °C 20.6 °C 1011.7 hPa WNW 3.1 km/h 7.4 km/h 97 % 0 mm
06:17 21.1 °C 20.6 °C 1011.7 hPa WNW 2.4 km/h 3.2 km/h 97 % 0 mm
06:22 21.1 °C 20.6 °C 1011.7 hPa WNW 1.6 km/h 5.6 km/h 97 % 0 mm
06:27 21.1 °C 20.6 °C 1012.1 hPa Calm   1.9 km/h 97 % 0 mm
06:32 21.1 °C 20.6 °C 1012.1 hPa WNW 0.3 km/h 5.6 km/h 97 % 0 mm
06:38 21.1 °C 20.6 °C 1012.1 hPa WNW 1.6 km/h 3.7 km/h 97 % 0 mm
06:43 21.1 °C 20.6 °C 1012.1 hPa WNW 0.2 km/h 5.6 km/h 97 % 0 mm
06:48 21.1 °C 20.6 °C 1012.1 hPa Calm   1.6 km/h 97 % 0 mm
06:53 21.1 °C 20.6 °C 1012.1 hPa SW 1.1 km/h 3.7 km/h 97 % 0 mm
06:58 21.1 °C 20.6 °C 1012.1 hPa Calm   1.6 km/h 97 % 0 mm
07:03 21.1 °C 20.6 °C 1012.1 hPa WNW 0.2 km/h 1.9 km/h 97 % 0 mm
07:08 21.1 °C 20.6 °C 1012.1 hPa WNW 1.8 km/h 5.6 km/h 97 % 0 mm
07:13 21.1 °C 20.6 °C 1012.1 hPa Calm   1.9 km/h 97 % 0 mm
07:18 21.2 °C 20.7 °C 1012.1 hPa WNW 1.9 km/h 5.6 km/h 97 % 0 mm
07:23 21.2 °C 20.7 °C 1012.1 hPa WNW 0.2 km/h 3.7 km/h 97 % 0 mm
07:28 21.3 °C 20.8 °C 1012.1 hPa NW 3.9 km/h 5.6 km/h 97 % 0 mm
07:33 21.4 °C 21.1 °C 1012.4 hPa Calm   5.6 km/h 98 % 0 mm
07:38 21.4 °C 21.1 °C 1012.1 hPa NW 0.2 km/h 5.6 km/h 98 % 0 mm
07:44 21.5 °C 21.2 °C 1012.1 hPa NW 2.6 km/h 5.6 km/h 98 % 0 mm
07:49 21.5 °C 21.2 °C 1012.1 hPa NW 0.8 km/h 5.6 km/h 98 % 0 mm
07:54 21.6 °C 21.2 °C 1012.1 hPa WNW 0.3 km/h 3.7 km/h 98 % 0 mm
07:59 21.6 °C 21.1 °C 1012.1 hPa NW 0.2 km/h 1.9 km/h 97 % 0 mm
08:04 21.6 °C 21.1 °C 1012.4 hPa NW 2.3 km/h 5.6 km/h 97 % 0 mm
08:09 21.6 °C 21.1 °C 1012.4 hPa NW 0.2 km/h 1.6 km/h 97 % 0 mm
08:14 21.6 °C 21.1 °C 1012.4 hPa WNW 1.9 km/h 5.6 km/h 97 % 0 mm
08:19 21.6 °C 21.1 °C 1012.4 hPa Calm   3.7 km/h 97 % 0 mm
08:24 21.6 °C 21.1 °C 1012.4 hPa WNW 3.5 km/h 5.6 km/h 97 % 0 mm
08:29 21.5 °C 21 °C 1012.4 hPa NNE 1.4 km/h 4.8 km/h 97 % 0 mm
08:34 21.6 °C 21.1 °C 1012.4 hPa NW 2.4 km/h 5.6 km/h 97 % 0 mm
08:39 21.5 °C 21 °C 1012.4 hPa North 2.7 km/h 5.6 km/h 97 % 0 mm
08:44 21.5 °C 21 °C 1012.4 hPa NW 0.8 km/h 5.6 km/h 97 % 0 mm
08:49 21.6 °C 21.1 °C 1012.4 hPa NNW 3.5 km/h 5.6 km/h 97 % 0 mm
08:54 21.6 °C 21.1 °C 1012.4 hPa NNW 1 km/h 3.7 km/h 97 % 0 mm
09:00 21.6 °C 21.1 °C 1012.4 hPa NNW 2.3 km/h 5.6 km/h 97 % 0 mm
09:05 21.7 °C 21.2 °C 1012.4 hPa Calm   5.6 km/h 97 % 0 mm
09:10 21.8 °C 21.3 °C 1012.4 hPa Calm   1.9 km/h 97 % 0 mm
09:15 21.8 °C 21.1 °C 1012.4 hPa West 0.6 km/h 1.9 km/h 96 % 0 mm
09:20 21.8 °C 21.2 °C 1012.4 hPa North 1.1 km/h 5.6 km/h 96 % 0 mm
09:25 21.9 °C 21.1 °C 1012.4 hPa Calm   3.7 km/h 95 % 0 mm
09:30 21.9 °C 20.9 °C 1012.4 hPa North 3.9 km/h 7.4 km/h 94 % 0 mm
09:35 22 °C 21 °C 1012.4 hPa WNW 3.4 km/h 5.6 km/h 94 % 0 mm
09:40 22.1 °C 20.9 °C 1012.4 hPa WNW 1.8 km/h 5.6 km/h 93 % 0 mm
09:45 22.3 °C 21.1 °C 1012.4 hPa NW 0.5 km/h 4.8 km/h 93 % 0 mm
09:50 22.4 °C 21.1 °C 1012.4 hPa NW 3.2 km/h 6.4 km/h 92 % 0 mm
09:55 22.8 °C 21.4 °C 1012.4 hPa NNW 0.6 km/h 3.7 km/h 92 % 0 mm
10:00 23.3 °C 21.7 °C 1012.4 hPa NW 0.8 km/h 1.9 km/h 91 % 0 mm
10:05 23.8 °C 22.1 °C 1012.4 hPa West 0.5 km/h 5.6 km/h 90 % 0 mm
10:10 24.2 °C 22.1 °C 1012.4 hPa WSW 1.4 km/h 5.6 km/h 88 % 0 mm
10:15 24.5 °C 22 °C 1012.4 hPa North 0.2 km/h 1.9 km/h 86 % 0 mm
10:20 24.9 °C 21.7 °C 1012.4 hPa WNW 2.9 km/h 5.6 km/h 82 % 0 mm
10:25 25.3 °C 21.6 °C 1012.4 hPa WNW 0.8 km/h 5.6 km/h 80 % 0 mm
10:30 25.7 °C 21.9 °C 1012.4 hPa WNW 1 km/h 5.6 km/h 80 % 0 mm
10:35 26 °C 21.7 °C 1012.8 hPa North 3.7 km/h 5.6 km/h 77 % 0 mm
10:40 26.3 °C 21.3 °C 1012.8 hPa WSW 1.3 km/h 4.8 km/h 74 % 0 mm
10:45 26.6 °C 21.3 °C 1012.4 hPa SW 1.6 km/h 5.6 km/h 73 % 0 mm
10:50 26.7 °C 21.5 °C 1012.4 hPa SW 1.6 km/h 9.3 km/h 73 % 0 mm
10:55 27.1 °C 22.2 °C 1012.4 hPa WSW 3.5 km/h 5.6 km/h 75 % 0 mm
11:00 27.4 °C 22.6 °C 1012.8 hPa WNW 1.9 km/h 3.7 km/h 75 % 0 mm
11:06 27.7 °C 22.2 °C 1012.4 hPa NW 1.6 km/h 6.4 km/h 72 % 0 mm
11:11 28.1 °C 22.8 °C 1012.8 hPa NW 1.6 km/h 4.8 km/h 73 % 0 mm
11:16 28.4 °C 22.4 °C 1012.8 hPa NNW 1.6 km/h 9.7 km/h 70 % 0 mm
11:21 28.8 °C 22.3 °C 1012.8 hPa North 3.2 km/h 9.7 km/h 68 % 0 mm
11:26 29.2 °C 22.2 °C 1012.8 hPa NW 4.8 km/h 11.3 km/h 66 % 0 mm
11:31 29.4 °C 22.2 °C 1012.8 hPa WNW 3.2 km/h 4.8 km/h 65 % 0 mm
11:36 29.7 °C 22.1 °C 1012.4 hPa NW 1.6 km/h 6.4 km/h 64 % 0 mm
11:41 29.9 °C 21.9 °C 1012.4 hPa NE 2.3 km/h 7.4 km/h 62 % 0 mm
11:46 30.2 °C 22.3 °C 1012.4 hPa North 4 km/h 5.6 km/h 63 % 0 mm
11:51 30.3 °C 22.2 °C 1012.4 hPa WNW 4.7 km/h 7.4 km/h 62 % 0 mm
11:56 30.4 °C 22.6 °C 1012.4 hPa WNW 2.1 km/h 7.4 km/h 63 % 0 mm
12:01 30.7 °C 22.3 °C 1012.4 hPa NNW 1.1 km/h 3.7 km/h 61 % 0 mm
12:06 30.8 °C 21.9 °C 1012.4 hPa NW 3.2 km/h 6.4 km/h 59 % 0 mm
12:07 30.9 °C 22.5 °C 1012.4 hPa NW 2.6 km/h 5.6 km/h 61 % 0 mm
12:12 31.1 °C 22.2 °C 1012.4 hPa WNW 4.3 km/h 7.4 km/h 59 % 0 mm
12:17 31.2 °C 21.4 °C 1012.4 hPa NNE 4.7 km/h 7.4 km/h 56 % 0 mm
12:22 31.3 °C 21.7 °C 1012.4 hPa WNW 3.9 km/h 9.3 km/h 57 % 0 mm
12:27 31.4 °C 21.6 °C 1012.4 hPa WNW 1.6 km/h 4.8 km/h 56 % 0 mm
12:32 31.5 °C 22.2 °C 1012.4 hPa West 3.2 km/h 4.8 km/h 58 % 0 mm
12:37 31.7 °C 21.8 °C 1012.8 hPa NNE 1.3 km/h 5.6 km/h 56 % 0 mm
12:42 31.8 °C 21.4 °C 1012.4 hPa NW 3.2 km/h 7.4 km/h 54 % 0 mm
12:47 31.9 °C 22.4 °C 1012.4 hPa West 3.9 km/h 6.4 km/h 57 % 0 mm
12:52 32.1 °C 21.3 °C 1012.4 hPa WNW 1.1 km/h 7.4 km/h 53 % 0 mm
12:57 32.1 °C 21.6 °C 1012.4 hPa North 1.9 km/h 7.4 km/h 54 % 0 mm
13:02 32.1 °C 21 °C 1012.4 hPa NW 7.7 km/h 11.3 km/h 52 % 0 mm
13:07 32.2 °C 21.7 °C 1012.4 hPa WNW 3.2 km/h 5.6 km/h 54 % 0 mm
13:12 32.2 °C 21.1 °C 1012.4 hPa North 3.1 km/h 5.6 km/h 52 % 0 mm
13:17 32.2 °C 22.1 °C 1012.4 hPa West 4.2 km/h 9.7 km/h 55 % 0 mm
13:22 32.3 °C 21.5 °C 1012.4 hPa NW 2.6 km/h 7.4 km/h 53 % 0 mm
13:27 32.2 °C 21.1 °C 1012.4 hPa NE 8.5 km/h 11.3 km/h 52 % 0 mm
13:32 32 °C 21.6 °C 1012.4 hPa NW 2.9 km/h 9.3 km/h 54 % 0 mm
13:37 31.9 °C 20.6 °C 1012.4 hPa NNW 5.3 km/h 9.3 km/h 51 % 0 mm
13:42 31.9 °C 21.2 °C 1012.1 hPa NNE 3.1 km/h 8 km/h 53 % 0 mm
13:47 31.9 °C 21.1 °C 1012.1 hPa NW 2.7 km/h 7.4 km/h 53 % 0 mm
13:52 31.9 °C 20.6 °C 1012.1 hPa North 5.5 km/h 7.4 km/h 51 % 0 mm
13:58 31.9 °C 21.1 °C 1012.1 hPa North 3.5 km/h 7.4 km/h 53 % 0 mm
14:03 31.7 °C 20.3 °C 1012.1 hPa North 3.1 km/h 5.6 km/h 51 % 0 mm
14:08 31.4 °C 20.4 °C 1012.1 hPa NE 2.3 km/h 7.4 km/h 52 % 0 mm
14:13 31.4 °C 20.1 °C 1012.1 hPa North 5.6 km/h 8 km/h 51 % 0 mm
14:18 31.5 °C 20.4 °C 1012.1 hPa ENE 3.2 km/h 9.3 km/h 52 % 0 mm
14:19 31.4 °C 19.7 °C 1012.1 hPa North 2.3 km/h 5.6 km/h 50 % 0 mm
14:24 31.3 °C 20 °C 1012.4 hPa North 3.4 km/h 6.4 km/h 51 % 0 mm
14:29 31.4 °C 21 °C 1012.4 hPa North 1.8 km/h 6.4 km/h 54 % 0 mm
14:34 31.4 °C 20.7 °C 1012.1 hPa NNE 1.4 km/h 5.6 km/h 53 % 0 mm
14:39 31.4 °C 20.7 °C 1012.4 hPa NW 2.7 km/h 5.6 km/h 53 % 0 mm
14:45 31.5 °C 20.8 °C 1012.4 hPa NNE 4.2 km/h 5.6 km/h 53 % 0 mm
14:50 31.5 °C 19.5 °C 1012.4 hPa NE 2.4 km/h 5.6 km/h 49 % 0 mm
14:55 31.5 °C 20.1 °C 1012.4 hPa WNW 4.3 km/h 9.3 km/h 51 % 0 mm
15:00 31.4 °C 19.8 °C 1012.4 hPa NNW 2.4 km/h 3.7 km/h 50 % 0 mm
15:05 31.2 °C 20.2 °C 1012.4 hPa North 1.8 km/h 3.7 km/h 52 % 0 mm
15:10 31.3 °C 20.6 °C 1012.4 hPa NNE 4.5 km/h 5.6 km/h 53 % 0 mm
15:15 31.3 °C 20 °C 1012.4 hPa NNW 3.5 km/h 7.4 km/h 51 % 0 mm
15:20 31.3 °C 20.3 °C 1012.4 hPa NNW 3.9 km/h 5.6 km/h 52 % 0 mm
15:25 31.4 °C 20.9 °C 1012.4 hPa NW 2.4 km/h 5.6 km/h 54 % 0 mm
15:30 31.4 °C 20.1 °C 1012.4 hPa North 1.1 km/h 6.4 km/h 51 % 0 mm
15:35 31.3 °C 20.2 °C 1012.4 hPa NNE 4.7 km/h 7.4 km/h 52 % 0 mm
15:40 31.1 °C 19.4 °C 1012.4 hPa North 3.7 km/h 5.6 km/h 50 % 0 mm
15:45 31.1 °C 19.4 °C 1012.4 hPa WNW 2.9 km/h 5.6 km/h 50 % 0 mm
15:50 31.2 °C 19.5 °C 1012.4 hPa North 3.2 km/h 6.4 km/h 50 % 0 mm
15:55 31.3 °C 19.6 °C 1012.4 hPa North 0.8 km/h 5.6 km/h 50 % 0 mm
16:00 31.3 °C 19.7 °C 1012.4 hPa North 4.5 km/h 7.4 km/h 50 % 0 mm
16:05 31.3 °C 19.3 °C 1012.4 hPa NNW 1 km/h 3.7 km/h 49 % 0 mm
16:10 31.3 °C 19 °C 1012.4 hPa NNE 3.9 km/h 5.6 km/h 48 % 0 mm
16:15 31.3 °C 19.3 °C 1012.4 hPa NNE 4 km/h 4.8 km/h 49 % 0 mm
16:20 31.2 °C 19.2 °C 1012.4 hPa North 5.8 km/h 7.4 km/h 49 % 0 mm
16:25 31.2 °C 19.2 °C 1012.4 hPa North 2.6 km/h 5.6 km/h 49 % 0 mm
16:31 31.2 °C 19.2 °C 1012.4 hPa NW 2.3 km/h 3.7 km/h 49 % 0 mm
16:36 31.1 °C 19.1 °C 1012.4 hPa NW 1.6 km/h 4.8 km/h 49 % 0 mm
16:41 30.9 °C 19.6 °C 1012.4 hPa NNW 1.6 km/h 6.4 km/h 51 % 0 mm
16:46 30.8 °C 19.2 °C 1012.4 hPa NNE 3.2 km/h 8 km/h 50 % 0 mm
16:51 30.6 °C 18.6 °C 1012.4 hPa Calm   6.4 km/h 49 % 0 mm
16:56 30.6 °C 19.3 °C 1012.4 hPa Calm   4.8 km/h 51 % 0 mm
17:01 30.6 °C 19.3 °C 1012.4 hPa NNW 0.8 km/h 3.7 km/h 51 % 0 mm
17:06 30.6 °C 18.7 °C 1012.4 hPa Calm   1.6 km/h 49 % 0 mm
17:11 30.5 °C 18.9 °C 1012.4 hPa North 3.1 km/h 5.6 km/h 50 % 0 mm
17:16 30.4 °C 19.1 °C 1012.4 hPa North 0.3 km/h 3.7 km/h 51 % 0 mm
17:21 30.3 °C 19.4 °C 1012.1 hPa North 1.3 km/h 5.6 km/h 52 % 0 mm
17:26 30.3 °C 19.1 °C 1012.1 hPa North 1.4 km/h 3.7 km/h 51 % 0 mm
17:31 30.2 °C 19.2 °C 1012.4 hPa North 1 km/h 3.7 km/h 52 % 0 mm
17:36 30 °C 19.1 °C 1012.4 hPa Calm     52 % 0 mm
17:41 29.8 °C 18.9 °C 1012.4 hPa Calm   1.9 km/h 52 % 0 mm
17:46 29.7 °C 19.1 °C 1012.4 hPa Calm     53 % 0 mm
17:51 29.6 °C 18.9 °C 1012.4 hPa North 0.2 km/h 1.6 km/h 53 % 0 mm
17:56 29.4 °C 18.5 °C 1012.4 hPa Calm     52 % 0 mm
18:01 29.3 °C 19 °C 1012.4 hPa Calm     54 % 0 mm
18:07 29.1 °C 19.2 °C 1012.4 hPa Calm     55 % 0 mm
18:12 29 °C 18.8 °C 1012.4 hPa Calm     54 % 0 mm
18:17 28.9 °C 18.7 °C 1012.4 hPa Calm   1.9 km/h 54 % 0 mm
18:22 28.8 °C 19.4 °C 1012.4 hPa Calm     57 % 0 mm
18:27 28.7 °C 19.1 °C 1012.4 hPa Calm     56 % 0 mm
18:32 28.7 °C 19.3 °C 1012.4 hPa Calm     57 % 0 mm
18:37 28.6 °C 18.9 °C 1012.8 hPa Calm     56 % 0 mm
18:42 28.5 °C 19.2 °C 1012.4 hPa Calm     57 % 0 mm
18:47 28.4 °C 19.3 °C 1012.8 hPa Calm     58 % 0 mm
18:52 28.3 °C 18.9 °C 1012.8 hPa Calm     57 % 0 mm
18:57 28.2 °C 19.7 °C 1012.8 hPa Calm     60 % 0 mm
19:02 28.1 °C 19.3 °C 1012.8 hPa Calm     59 % 0 mm
19:07 27.9 °C 19.4 °C 1012.8 hPa Calm   1.9 km/h 60 % 0 mm
19:12 27.8 °C 19.3 °C 1012.8 hPa Calm     60 % 0 mm
19:17 27.7 °C 19.4 °C 1012.8 hPa Calm     61 % 0 mm
19:22 27.5 °C 19.8 °C 1012.8 hPa Calm     63 % 0 mm
19:27 27.4 °C 20.2 °C 1012.8 hPa Calm     65 % 0 mm
19:32 27.2 °C 20.5 °C 1012.8 hPa Calm     67 % 0 mm
19:37 26.9 °C 20.3 °C 1012.8 hPa Calm     67 % 0 mm
19:43 26.7 °C 20.3 °C 1013.1 hPa Calm     68 % 0 mm
19:48 26.6 °C 20.6 °C 1013.1 hPa Calm     70 % 0 mm
19:53 26.3 °C 20.7 °C 1013.1 hPa Calm   1.9 km/h 71 % 0 mm
19:58 26 °C 20.3 °C 1013.1 hPa Calm     71 % 0 mm
20:03 25.7 °C 20.3 °C 1013.1 hPa Calm     72 % 0 mm
20:08 25.5 °C 20.1 °C 1013.1 hPa Calm     72 % 0 mm
20:13 25.3 °C 19.9 °C 1013.1 hPa Calm     72 % 0 mm
20:18 25.1 °C 19.9 °C 1013.4 hPa North 0.2 km/h 1.9 km/h 73 % 0 mm
20:23 24.9 °C 19.7 °C 1013.4 hPa Calm     73 % 0 mm
20:28 24.7 °C 19.8 °C 1013.4 hPa Calm     74 % 0 mm
20:33 24.5 °C 19.6 °C 1013.1 hPa Calm     74 % 0 mm
20:35 24.4 °C 19.5 °C 1013.1 hPa Calm     74 % 0 mm
20:40 24.3 °C 19.3 °C 1013.4 hPa Calm   1.9 km/h 74 % 0 mm
20:45 24.2 °C 19.2 °C 1013.4 hPa Calm     74 % 0 mm
20:50 24.1 °C 19.3 °C 1013.4 hPa Calm     75 % 0 mm
20:55 23.9 °C 19.2 °C 1013.4 hPa Calm     75 % 0 mm
21:01 23.8 °C 19.3 °C 1013.4 hPa Calm     76 % 0 mm
21:06 23.7 °C 19.6 °C 1013.4 hPa Calm     78 % 0 mm
21:11 23.5 °C 19.4 °C 1013.4 hPa Calm     78 % 0 mm
21:16 23.4 °C 19.6 °C 1013.8 hPa Calm     79 % 0 mm
21:21 23.3 °C 19.4 °C 1013.8 hPa Calm     79 % 0 mm
21:26 23.2 °C 19.5 °C 1013.8 hPa Calm     80 % 0 mm
21:31 23 °C 19.2 °C 1013.8 hPa Calm     79 % 0 mm
21:36 22.9 °C 19.3 °C 1013.8 hPa Calm     80 % 0 mm
21:41 22.8 °C 19.4 °C 1013.8 hPa Calm     81 % 0 mm
21:46 22.7 °C 19.3 °C 1013.8 hPa Calm     81 % 0 mm
21:51 22.6 °C 19.2 °C 1013.8 hPa Calm     81 % 0 mm
21:56 22.6 °C 19.1 °C 1013.8 hPa Calm     81 % 0 mm
22:01 22.4 °C 19.2 °C 1013.8 hPa Calm     82 % 0 mm
22:06 22.4 °C 19.2 °C 1013.8 hPa Calm     82 % 0 mm
22:11 22.3 °C 19.1 °C 1013.8 hPa Calm     82 % 0 mm
22:16 22.2 °C 19 °C 1013.8 hPa Calm     82 % 0 mm
22:22 22.2 °C 18.9 °C 1014.1 hPa Calm     82 % 0 mm
22:27 22.1 °C 18.7 °C 1014.1 hPa Calm     81 % 0 mm
22:32 22 °C 18.6 °C 1014.1 hPa Calm     81 % 0 mm
22:37 21.9 °C 18.7 °C 1014.1 hPa Calm     82 % 0 mm
22:42 21.9 °C 18.7 °C 1014.1 hPa North 0.3 km/h 1.9 km/h 82 % 0 mm
22:47 21.8 °C 18.6 °C 1014.1 hPa North 0.3 km/h 1.9 km/h 82 % 0 mm
22:52 21.8 °C 18.8 °C 1014.1 hPa Calm     83 % 0 mm
22:57 21.7 °C 18.7 °C 1014.1 hPa Calm     83 % 0 mm
23:02 21.7 °C 18.7 °C 1014.1 hPa Calm     83 % 0 mm
23:07 21.7 °C 18.7 °C 1014.1 hPa Calm     83 % 0 mm
23:12 21.6 °C 18.8 °C 1014.1 hPa Calm     84 % 0 mm
23:17 21.6 °C 19 °C 1014.1 hPa Calm     85 % 0 mm
23:22 21.6 °C 18.9 °C 1014.1 hPa Calm     85 % 0 mm
23:27 21.6 °C 18.9 °C 1014.1 hPa Calm     85 % 0 mm
23:32 21.6 °C 18.9 °C 1014.4 hPa Calm     85 % 0 mm
23:34 21.5 °C 18.9 °C 1014.4 hPa Calm     85 % 0 mm
23:39 21.5 °C 19.1 °C 1014.4 hPa Calm     86 % 0 mm
23:44 21.4 °C 19 °C 1014.4 hPa Calm     86 % 0 mm
23:49 21.4 °C 19 °C 1014.8 hPa Calm     86 % 0 mm
23:54 21.4 °C 19 °C 1014.8 hPa Calm     86 % 0 mm
23:59 21.4 °C 19.1 °C 1014.8 hPa Calm   1.9 km/h 87 % 0 mm
Crab Meadow Weather
Compliments of Weather Underground - 3 mb

Script developed by  Jim McMurry - jmcmurry@mwt.net Adapted for the template by  Wim van der Kuil - Leuven-Template.eu

Weather Terms: Gustnado - A gust front tornado. A small, weak, short-lived tornado that occurs along a gust front - the leading edge of a thunderstorm, caused by rain-cooled air flowing out from the storm's downdraft. A gustnado is often visible as a debris cloud or dust whirl.